createdAt,value
2022-10-05T00:01:40.751Z,40.54
2022-10-05T00:04:25.366Z,41.39
2022-10-05T00:07:10.029Z,41.72
2022-10-05T00:09:54.827Z,41.54
2022-10-05T00:12:39.566Z,40.85
2022-10-05T00:15:24.520Z,40.10
2022-10-05T00:18:09.239Z,41.05
2022-10-05T00:20:54.103Z,39.41
2022-10-05T00:23:39.075Z,38.75
2022-10-05T00:26:23.815Z,38.13
2022-10-05T00:29:08.602Z,38.25
2022-10-05T00:31:53.352Z,38.50
2022-10-05T00:34:38.577Z,38.36
2022-10-05T00:37:23.183Z,37.54
2022-10-05T00:40:08.022Z,37.52
2022-10-05T00:42:52.777Z,37.20
2022-10-05T00:45:37.562Z,36.99
2022-10-05T00:48:22.335Z,36.78
2022-10-05T00:51:07.111Z,36.79
2022-10-05T00:53:51.829Z,36.88
2022-10-05T00:56:36.555Z,37.14
2022-10-05T00:59:21.330Z,36.69
2022-10-05T01:02:06.103Z,37.08
2022-10-05T01:04:50.790Z,37.28
2022-10-05T01:07:35.461Z,37.12
2022-10-05T01:10:20.332Z,37.12
2022-10-05T01:13:04.962Z,37.30
2022-10-05T01:15:49.667Z,37.08
2022-10-05T01:18:34.504Z,36.76
2022-10-05T01:21:19.275Z,36.76
2022-10-05T01:24:04.188Z,36.85
2022-10-05T01:26:49.174Z,37.30
2022-10-05T01:29:34.320Z,37.51
2022-10-05T01:32:18.936Z,37.53
2022-10-05T01:35:03.773Z,37.85
2022-10-05T01:37:48.647Z,38.15
2022-10-05T01:40:33.420Z,38.74
2022-10-05T01:43:18.192Z,39.07
2022-10-05T01:46:02.941Z,39.22
2022-10-05T01:48:47.815Z,39.21
2022-10-05T01:51:32.625Z,39.21
2022-10-05T01:54:17.500Z,39.53
2022-10-05T01:57:02.205Z,39.12
2022-10-05T01:59:47.072Z,39.11
2022-10-05T02:02:31.848Z,39.36
2022-10-05T02:05:17.025Z,39.44
2022-10-05T02:08:01.747Z,38.93
2022-10-05T02:10:46.539Z,38.93
2022-10-05T02:13:31.191Z,38.75
2022-10-05T02:16:16.004Z,39.78
2022-10-05T02:19:01.325Z,40.13
2022-10-05T02:21:45.927Z,39.89
2022-10-05T02:24:30.687Z,39.14
2022-10-05T02:27:15.395Z,39.36
2022-10-05T02:30:00.131Z,38.37
2022-10-05T02:32:44.848Z,37.92
2022-10-05T02:35:29.670Z,37.95
2022-10-05T02:38:14.321Z,38.08
2022-10-05T02:40:59.109Z,37.77
2022-10-05T02:43:44.123Z,37.69
2022-10-05T02:46:28.859Z,38.03
2022-10-05T02:49:13.683Z,38.29
2022-10-05T02:51:58.283Z,38.26
2022-10-05T02:54:43.246Z,38.54
2022-10-05T02:57:27.912Z,39.00
2022-10-05T03:00:12.656Z,39.05
2022-10-05T03:02:57.293Z,38.63
2022-10-05T03:05:42.123Z,38.22
2022-10-05T03:08:26.823Z,38.64
2022-10-05T03:11:11.683Z,39.04
2022-10-05T03:13:56.489Z,38.60
2022-10-05T03:16:41.097Z,38.08
2022-10-05T03:19:26.025Z,37.91
2022-10-05T03:22:10.884Z,37.94
2022-10-05T03:24:55.639Z,37.91
2022-10-05T03:27:40.344Z,37.88
2022-10-05T03:30:25.099Z,38.12
2022-10-05T03:33:09.838Z,38.65
2022-10-05T03:35:54.727Z,38.87
2022-10-05T03:38:39.461Z,38.78
2022-10-05T03:41:24.257Z,38.69
2022-10-05T03:44:08.996Z,38.92
2022-10-05T03:46:53.665Z,38.35
2022-10-05T03:49:38.467Z,37.50
2022-10-05T03:52:23.251Z,37.29
2022-10-05T03:55:08.012Z,36.99
2022-10-05T03:57:52.697Z,36.75
2022-10-05T04:00:37.459Z,36.81
2022-10-05T04:03:22.271Z,36.44
2022-10-05T04:06:06.953Z,37.02
2022-10-05T04:08:51.586Z,37.09
2022-10-05T04:11:36.412Z,37.11
2022-10-05T04:14:21.165Z,37.03
2022-10-05T04:17:05.886Z,37.49
2022-10-05T04:19:50.793Z,38.01
2022-10-05T04:22:35.405Z,38.95
2022-10-05T04:25:20.369Z,38.79
2022-10-05T04:28:05.187Z,39.14
2022-10-05T04:30:50.042Z,39.11
2022-10-05T04:33:34.634Z,39.30
2022-10-05T04:36:19.400Z,38.86
2022-10-05T04:39:04.167Z,37.65
2022-10-05T04:41:49.001Z,37.95
2022-10-05T04:44:33.835Z,38.38
2022-10-05T04:47:18.665Z,38.28
2022-10-05T04:50:03.485Z,37.93
2022-10-05T04:52:48.144Z,37.55
2022-10-05T04:55:32.828Z,39.02
2022-10-05T04:58:17.489Z,38.20
2022-10-05T05:01:02.429Z,37.96
2022-10-05T05:03:47.189Z,38.37
2022-10-05T05:06:32.362Z,38.26
2022-10-05T05:09:17.171Z,38.53
2022-10-05T05:12:01.969Z,38.36
2022-10-05T05:14:46.777Z,38.22
2022-10-05T05:17:31.460Z,37.68
2022-10-05T05:20:16.249Z,37.47
2022-10-05T05:23:01.033Z,36.94
2022-10-05T05:25:45.826Z,36.50
2022-10-05T05:28:30.603Z,36.18
2022-10-05T05:31:15.348Z,35.27
2022-10-05T05:33:59.977Z,35.42
2022-10-05T05:36:45.073Z,35.14
2022-10-05T05:39:30.345Z,35.29
2022-10-05T05:42:14.995Z,35.59
2022-10-05T05:44:59.895Z,35.84
2022-10-05T05:47:44.684Z,36.20
2022-10-05T05:50:29.689Z,36.62
2022-10-05T05:53:14.380Z,36.70
2022-10-05T05:55:59.367Z,36.44
2022-10-05T05:58:44.025Z,36.43
2022-10-05T06:01:33.531Z,36.09
2022-10-05T06:04:18.795Z,36.39
2022-10-05T06:07:03.628Z,37.05
2022-10-05T06:09:48.312Z,37.59
2022-10-05T06:12:33.098Z,37.77
2022-10-05T06:15:17.734Z,37.72
2022-10-05T06:18:02.632Z,37.76
2022-10-05T06:20:47.243Z,38.22
2022-10-05T06:23:32.122Z,37.72
2022-10-05T06:26:16.859Z,37.50
2022-10-05T06:29:01.571Z,37.60
2022-10-05T06:31:46.288Z,37.55
2022-10-05T06:34:31.171Z,37.33
2022-10-05T06:37:15.965Z,37.34
2022-10-05T06:40:01.377Z,37.74
2022-10-05T06:42:46.616Z,31.71
2022-10-05T06:45:31.415Z,27.70
2022-10-05T06:48:16.048Z,25.23
2022-10-05T06:51:00.795Z,23.17
2022-10-05T06:53:45.539Z,20.36
2022-10-05T06:56:30.333Z,19.46
2022-10-05T06:59:14.894Z,18.48
2022-10-05T07:01:59.602Z,17.18
2022-10-05T07:04:44.370Z,17.12
2022-10-05T07:07:29.115Z,16.68
2022-10-05T07:10:13.737Z,15.66
2022-10-05T07:12:58.427Z,15.61
2022-10-05T07:15:43.290Z,15.38
2022-10-05T07:18:28.012Z,16.69
2022-10-05T07:21:12.864Z,19.27
2022-10-05T07:23:57.572Z,22.27
2022-10-05T07:26:42.364Z,23.83
2022-10-05T07:29:27.203Z,26.64
2022-10-05T07:32:11.918Z,27.47
2022-10-05T07:34:56.632Z,25.67
2022-10-05T07:37:41.369Z,29.73
2022-10-05T07:40:26.189Z,29.74
2022-10-05T07:43:10.862Z,28.83
2022-10-05T07:45:55.679Z,29.86
2022-10-05T07:48:40.405Z,29.33
2022-10-05T07:51:25.373Z,30.23
2022-10-05T07:54:10.202Z,29.13
2022-10-05T07:56:54.850Z,29.85
2022-10-05T07:59:39.704Z,29.62
2022-10-05T08:02:24.442Z,28.64
2022-10-05T08:05:09.588Z,27.89
2022-10-05T08:07:54.593Z,27.52
2022-10-05T08:10:39.277Z,27.15
2022-10-05T08:13:24.137Z,26.50
2022-10-05T08:16:08.917Z,28.86
2022-10-05T08:18:53.877Z,29.82
2022-10-05T08:21:38.635Z,30.04
2022-10-05T08:24:23.440Z,29.03
2022-10-05T08:27:08.199Z,28.72
2022-10-05T08:29:52.958Z,30.40
2022-10-05T08:32:37.694Z,28.76
2022-10-05T08:35:22.627Z,27.06
2022-10-05T08:38:07.252Z,28.01
2022-10-05T08:40:51.960Z,25.78
2022-10-05T08:43:36.664Z,28.85
2022-10-05T08:46:21.503Z,27.90
2022-10-05T08:49:06.179Z,29.42
2022-10-05T08:51:50.882Z,29.12
2022-10-05T08:54:35.664Z,29.13
2022-10-05T08:57:20.340Z,29.47
2022-10-05T09:00:05.167Z,26.64
2022-10-05T09:02:49.977Z,27.28
2022-10-05T09:05:34.764Z,28.94
2022-10-05T09:08:19.456Z,31.19
2022-10-05T09:11:04.184Z,31.05
2022-10-05T09:13:48.940Z,28.73
2022-10-05T09:16:33.685Z,29.43
2022-10-05T09:19:18.375Z,28.73
2022-10-05T09:22:03.089Z,30.53
2022-10-05T09:24:48.699Z,30.93
2022-10-05T09:27:33.503Z,28.37
2022-10-05T09:30:18.329Z,28.45
2022-10-05T09:33:02.952Z,28.18
2022-10-05T09:35:47.707Z,28.90
2022-10-05T09:38:32.492Z,28.37
2022-10-05T09:41:17.450Z,28.70
2022-10-05T09:44:02.419Z,28.02
2022-10-05T09:46:47.295Z,27.73
2022-10-05T09:49:32.307Z,27.42
2022-10-05T09:52:19.067Z,28.49
2022-10-05T09:55:04.281Z,27.97
2022-10-05T09:57:50.895Z,27.95
2022-10-05T10:00:38.360Z,30.47
2022-10-05T10:03:23.479Z,26.96
2022-10-05T10:06:08.283Z,28.41
2022-10-05T10:08:53.054Z,26.83
2022-10-05T10:11:37.690Z,27.14
2022-10-05T10:14:22.435Z,27.53
2022-10-05T10:17:07.279Z,26.95
2022-10-05T10:19:52.190Z,27.12
2022-10-05T10:22:42.211Z,27.34
2022-10-05T10:25:27.677Z,27.46
2022-10-05T10:28:12.484Z,28.83
2022-10-05T10:30:57.339Z,29.86
2022-10-05T10:33:42.052Z,27.71
2022-10-05T10:36:26.843Z,28.93
2022-10-05T10:39:11.480Z,27.86
2022-10-05T10:41:56.266Z,28.46
2022-10-05T10:44:40.969Z,27.27
2022-10-05T10:47:26.975Z,26.47
2022-10-05T10:50:11.928Z,27.58
2022-10-05T10:52:56.733Z,28.08
2022-10-05T10:55:41.463Z,29.48
2022-10-05T10:58:26.362Z,27.01
2022-10-05T11:01:11.044Z,28.38
2022-10-05T11:03:55.726Z,27.43
2022-10-05T11:06:40.354Z,26.64
2022-10-05T11:09:25.100Z,26.92
2022-10-05T11:12:09.974Z,27.54
2022-10-05T11:14:54.623Z,28.03
2022-10-05T11:17:39.459Z,28.94
2022-10-05T11:20:24.246Z,31.16
2022-10-05T11:23:09.057Z,28.13
2022-10-05T11:25:53.930Z,28.49
2022-10-05T11:28:38.781Z,27.58
2022-10-05T11:31:24.034Z,28.27
2022-10-05T11:34:08.592Z,29.64
2022-10-05T11:36:53.522Z,29.66
2022-10-05T11:39:38.300Z,29.25
2022-10-05T11:42:23.081Z,31.60
2022-10-05T11:45:07.743Z,29.97
2022-10-05T11:47:52.552Z,29.13
2022-10-05T11:50:37.429Z,30.05
2022-10-05T11:53:22.275Z,28.62
2022-10-05T11:56:07.121Z,28.53
2022-10-05T11:58:51.876Z,31.39
2022-10-05T12:01:36.643Z,26.50
2022-10-05T12:04:21.322Z,26.88
2022-10-05T12:07:06.221Z,27.71
2022-10-05T12:09:51.243Z,28.29
2022-10-05T12:12:36.083Z,25.59
2022-10-05T12:15:20.898Z,27.41
2022-10-05T12:18:05.623Z,28.25
2022-10-05T12:20:50.469Z,26.61
2022-10-05T12:23:35.229Z,27.20
2022-10-05T12:26:20.086Z,26.61
2022-10-05T12:29:04.879Z,27.23
2022-10-05T12:31:49.577Z,27.58
2022-10-05T12:34:34.185Z,27.21
2022-10-05T12:37:19.027Z,26.70
2022-10-05T12:40:03.682Z,26.56
2022-10-05T12:42:48.468Z,26.51
2022-10-05T12:45:33.267Z,26.99
2022-10-05T12:48:18.114Z,27.00
2022-10-05T12:51:02.890Z,26.22
2022-10-05T12:53:47.488Z,27.82
2022-10-05T12:56:32.222Z,27.06
2022-10-05T12:59:16.889Z,27.19
2022-10-05T13:02:01.837Z,28.21
2022-10-05T13:04:46.492Z,27.46
2022-10-05T13:07:31.460Z,28.13
2022-10-05T13:10:16.194Z,28.63
2022-10-05T13:13:00.957Z,28.05
2022-10-05T13:15:45.760Z,29.09
2022-10-05T13:18:30.437Z,28.96
2022-10-05T13:21:15.267Z,29.47
2022-10-05T13:24:00.040Z,26.76
2022-10-05T13:26:44.763Z,27.11
2022-10-05T13:29:29.537Z,28.60
2022-10-05T13:32:14.389Z,28.19
2022-10-05T13:34:59.140Z,27.16
2022-10-05T13:37:43.977Z,28.11
2022-10-05T13:40:28.802Z,28.87
2022-10-05T13:43:13.413Z,29.99
2022-10-05T13:45:58.189Z,30.07
2022-10-05T13:48:42.919Z,27.78
2022-10-05T13:51:27.746Z,27.58
2022-10-05T13:54:12.530Z,29.08
2022-10-05T13:56:57.323Z,30.86
2022-10-05T13:59:41.973Z,28.97
2022-10-05T14:02:26.934Z,27.56
2022-10-05T14:05:11.561Z,27.24
2022-10-05T14:07:56.331Z,25.95
2022-10-05T14:10:41.003Z,27.46
2022-10-05T14:13:25.778Z,27.84
2022-10-05T14:16:10.544Z,28.19
2022-10-05T14:18:55.296Z,28.13
2022-10-05T14:21:40.131Z,28.14
2022-10-05T14:24:42.802Z,28.00
2022-10-05T14:27:28.896Z,28.12
2022-10-05T14:30:13.681Z,28.06
2022-10-05T14:32:58.523Z,28.69
2022-10-05T14:35:43.410Z,29.67
2022-10-05T14:38:28.184Z,29.01
2022-10-05T14:41:13.410Z,28.56
2022-10-05T14:43:58.330Z,27.68
2022-10-05T14:46:43.271Z,26.19
2022-10-05T14:49:28.062Z,25.65
2022-10-05T14:52:13.306Z,25.50
2022-10-05T14:54:58.109Z,27.09
2022-10-05T14:57:42.961Z,27.66
2022-10-05T15:00:27.897Z,26.35
2022-10-05T15:03:12.675Z,27.50
2022-10-05T15:05:57.522Z,30.55
2022-10-05T15:08:42.129Z,30.53
2022-10-05T15:11:27.005Z,29.93
2022-10-05T15:14:11.757Z,32.85
2022-10-05T15:16:56.771Z,31.84
2022-10-05T15:19:41.853Z,32.01
2022-10-05T15:22:26.710Z,33.41
2022-10-05T15:25:11.451Z,34.34
2022-10-05T15:27:56.153Z,35.55
2022-10-05T15:30:41.087Z,34.78
2022-10-05T15:33:25.686Z,34.96
2022-10-05T15:36:10.442Z,34.42
2022-10-05T15:39:00.105Z,32.38
2022-10-05T15:41:45.705Z,32.37
2022-10-05T15:44:30.988Z,31.88
2022-10-05T15:47:15.663Z,30.70
2022-10-05T15:50:00.566Z,30.37
2022-10-05T15:52:45.244Z,31.39
2022-10-05T15:55:29.989Z,32.62
2022-10-05T15:58:14.712Z,33.58
2022-10-05T16:00:59.588Z,32.29
2022-10-05T16:03:44.465Z,32.23
2022-10-05T16:06:29.481Z,33.45
2022-10-05T16:09:14.247Z,32.93
2022-10-05T16:11:59.036Z,33.30
2022-10-05T16:14:43.804Z,33.90
2022-10-05T16:17:28.565Z,33.65
2022-10-05T16:20:13.416Z,37.51
2022-10-05T16:22:58.082Z,34.76
2022-10-05T16:25:42.836Z,34.16
2022-10-05T16:28:27.743Z,37.52
2022-10-05T16:31:12.848Z,36.23
2022-10-05T16:33:57.644Z,36.56
2022-10-05T16:36:42.407Z,37.29
2022-10-05T16:39:27.223Z,37.23
2022-10-05T16:42:11.883Z,35.47
2022-10-05T16:44:56.659Z,36.07
2022-10-05T16:47:41.366Z,35.39
2022-10-05T16:50:26.160Z,35.38
2022-10-05T16:53:10.835Z,35.58
2022-10-05T16:55:55.701Z,36.34
2022-10-05T16:58:40.487Z,36.92
2022-10-05T17:01:25.189Z,35.58
2022-10-05T17:04:09.908Z,35.79
2022-10-05T17:06:54.769Z,36.95
2022-10-05T17:09:39.648Z,35.61
2022-10-05T17:12:24.365Z,35.82
2022-10-05T17:15:09.182Z,37.38
2022-10-05T17:17:53.877Z,36.96
2022-10-05T17:20:42.490Z,36.66
2022-10-05T17:23:27.896Z,37.46
2022-10-05T17:26:12.560Z,36.80
2022-10-05T17:28:57.262Z,36.97
2022-10-05T17:31:41.954Z,38.32
2022-10-05T17:34:26.871Z,38.24
2022-10-05T17:37:11.561Z,37.49
2022-10-05T17:39:56.351Z,37.40
2022-10-05T17:42:41.082Z,35.83
2022-10-05T17:45:25.926Z,35.74
2022-10-05T17:48:11.135Z,36.05
2022-10-05T17:50:55.877Z,37.19
2022-10-05T17:53:40.710Z,36.14
2022-10-05T17:56:25.487Z,36.53
2022-10-05T17:59:10.239Z,36.88
2022-10-05T18:01:54.977Z,37.26
2022-10-05T18:04:39.542Z,38.30
2022-10-05T18:07:24.255Z,39.25
2022-10-05T18:10:09.002Z,39.41
2022-10-05T18:12:53.680Z,39.29
2022-10-05T18:15:38.602Z,39.78
2022-10-05T18:18:23.619Z,39.02
2022-10-05T18:21:08.567Z,38.72
2022-10-05T18:23:53.431Z,38.84
2022-10-05T18:26:38.010Z,41.17
2022-10-05T18:29:22.775Z,40.39
2022-10-05T18:32:07.471Z,40.77
2022-10-05T18:34:52.287Z,42.57
2022-10-05T18:37:37.461Z,42.92
2022-10-05T18:40:22.198Z,43.22
2022-10-05T18:43:07.232Z,42.60
2022-10-05T18:45:51.913Z,43.46
2022-10-05T18:48:36.835Z,43.20
2022-10-05T18:51:33.922Z,44.52
2022-10-05T18:54:19.162Z,44.44
2022-10-05T18:57:04.137Z,45.34
2022-10-05T18:59:49.144Z,45.52
2022-10-05T19:02:33.896Z,45.73
2022-10-05T19:05:43.069Z,46.08
2022-10-05T19:08:23.974Z,46.27
2022-10-05T19:11:08.958Z,47.07
2022-10-05T19:13:53.737Z,47.17
2022-10-05T19:16:38.429Z,46.84
2022-10-05T19:19:29.447Z,46.96
2022-10-05T19:22:17.201Z,46.47
2022-10-05T19:25:01.962Z,46.65
2022-10-05T19:27:46.631Z,45.66
2022-10-05T19:30:31.485Z,45.41
2022-10-05T19:33:16.211Z,44.57
2022-10-05T19:36:01.182Z,44.65
2022-10-05T19:38:45.840Z,45.02
2022-10-05T19:41:30.652Z,44.47
2022-10-05T19:44:15.287Z,44.61
2022-10-05T19:47:00.011Z,44.43
2022-10-05T19:49:45.203Z,44.44
2022-10-05T19:52:30.235Z,44.41
2022-10-05T19:55:14.967Z,44.53
2022-10-05T19:57:59.688Z,45.94
2022-10-05T20:00:44.595Z,44.06
2022-10-05T20:03:29.285Z,43.84
2022-10-05T20:06:14.241Z,43.53
2022-10-05T20:08:58.962Z,42.77
2022-10-05T20:11:43.693Z,41.51
2022-10-05T20:14:28.442Z,41.45
2022-10-05T20:17:13.121Z,42.20
2022-10-05T20:19:57.855Z,41.16
2022-10-05T20:22:42.710Z,41.27
2022-10-05T20:25:27.522Z,42.95
2022-10-05T20:28:12.274Z,41.96
2022-10-05T20:30:57.051Z,41.94
2022-10-05T20:33:41.662Z,41.61
2022-10-05T20:36:26.436Z,41.69
2022-10-05T20:39:11.193Z,41.46
2022-10-05T20:41:56.158Z,40.96
2022-10-05T20:44:41.024Z,40.84
2022-10-05T20:47:25.900Z,40.48
2022-10-05T20:50:10.606Z,41.03
2022-10-05T20:52:55.894Z,41.22
2022-10-05T20:55:40.676Z,41.10
2022-10-05T20:58:25.920Z,41.33
2022-10-05T21:01:10.862Z,40.67
2022-10-05T21:03:55.489Z,41.10
2022-10-05T21:06:40.357Z,40.86
2022-10-05T21:09:25.022Z,41.70
2022-10-05T21:12:09.878Z,42.39
2022-10-05T21:14:54.483Z,43.26
2022-10-05T21:17:39.284Z,42.99
2022-10-05T21:20:23.996Z,42.80
2022-10-05T21:23:08.713Z,42.90
2022-10-05T21:25:53.552Z,43.58
2022-10-05T21:28:38.431Z,43.01
2022-10-05T21:31:23.802Z,43.51
2022-10-05T21:34:08.450Z,43.54
2022-10-05T21:36:53.161Z,43.67
2022-10-05T21:39:37.923Z,44.40
2022-10-05T21:42:23.582Z,45.03
2022-10-05T21:45:08.530Z,45.33
2022-10-05T21:47:53.280Z,44.92
2022-10-05T21:50:38.180Z,44.81
2022-10-05T21:53:22.861Z,45.31
2022-10-05T21:56:07.718Z,45.30
2022-10-05T21:58:52.452Z,45.38
2022-10-05T22:01:37.458Z,45.65
2022-10-05T22:04:22.100Z,46.42
2022-10-05T22:07:06.894Z,46.36
2022-10-05T22:09:51.567Z,46.25
2022-10-05T22:12:36.353Z,46.38
2022-10-05T22:15:21.150Z,46.36
2022-10-05T22:18:05.821Z,46.31
2022-10-05T22:20:50.621Z,46.24
2022-10-05T22:23:35.411Z,46.11
2022-10-05T22:26:20.170Z,46.41
2022-10-05T22:29:04.905Z,46.60
2022-10-05T22:31:49.685Z,46.28
2022-10-05T22:34:34.498Z,46.65
2022-10-05T22:37:19.210Z,46.55
2022-10-05T22:40:03.980Z,46.11
2022-10-05T22:42:48.713Z,46.26
2022-10-05T22:45:33.597Z,46.14
2022-10-05T22:48:18.860Z,45.84
2022-10-05T22:51:03.647Z,46.23
2022-10-05T22:53:48.387Z,46.24
2022-10-05T22:56:33.117Z,46.20
2022-10-05T22:59:17.841Z,46.88
2022-10-05T23:02:02.658Z,46.81
2022-10-05T23:04:47.821Z,47.13
2022-10-05T23:07:32.678Z,47.48
2022-10-05T23:10:17.352Z,47.09
2022-10-05T23:13:02.010Z,46.75
2022-10-05T23:15:46.772Z,46.17
2022-10-05T23:18:31.899Z,46.12
2022-10-05T23:21:16.940Z,46.12
2022-10-05T23:24:01.527Z,45.84
2022-10-05T23:26:46.440Z,45.34
2022-10-05T23:29:31.282Z,45.44
2022-10-05T23:32:16.000Z,44.88
2022-10-05T23:35:00.750Z,44.85
2022-10-05T23:37:45.442Z,44.81
2022-10-05T23:40:30.141Z,45.03
2022-10-05T23:43:14.939Z,44.95
2022-10-05T23:45:59.758Z,45.60
2022-10-05T23:48:44.533Z,45.07
2022-10-05T23:51:29.429Z,45.50
2022-10-05T23:54:14.188Z,45.41
2022-10-05T23:56:59.159Z,45.11
2022-10-05T23:59:43.734Z,45.09
